Time;durP1;ratioP1;P1;durP2;ratioP2;P2;SDS_P1;SDS_P2;PMS_P1;PMS_P2;Temp;Humidity;BMP_temperature;BMP_pressure;BME280_temperature;BME280_humidity;BME280_pressure;Samples;Min_cycle;Max_cycle;Signal;HPM_P1;HPM_P2
2021/05/27 00:00:28;;;;;;;8.18;5.03;;;;;;;16.42;77.55;100417.19;5011577;28;20160;-70
2021/05/27 00:02:53;;;;;;;7.75;4.97;;;;;;;16.31;77.99;100415.34;5012055;28;20045;-71
2021/05/27 00:05:21;;;;;;;5.80;4.90;;;;;;;16.27;77.71;100403.09;5019548;28;20030;-73
2021/05/27 00:07:46;;;;;;;8.32;5.53;;;;;;;16.10;78.82;100408.13;5001580;28;20057;-72
2021/05/27 00:10:14;;;;;;;7.45;5.50;;;;;;;16.16;79.18;100420.31;5032800;28;20057;-70
2021/05/27 00:12:39;;;;;;;8.80;5.60;;;;;;;16.19;78.81;100415.19;5015756;28;20035;-74
2021/05/27 00:15:07;;;;;;;5.53;4.93;;;;;;;15.97;78.87;100396.63;5033620;28;20108;-72
2021/05/27 00:17:32;;;;;;;6.28;5.47;;;;;;;15.84;79.85;100410.38;5033122;28;20025;-73
2021/05/27 00:19:58;;;;;;;10.15;5.60;;;;;;;15.87;79.85;100399.97;5033258;28;20022;-70
2021/05/27 00:22:23;;;;;;;7.45;5.07;;;;;;;15.70;79.96;100373.66;5013501;28;20029;-72
2021/05/27 00:24:49;;;;;;;6.07;4.82;;;;;;;15.66;80.24;100374.47;5014648;28;20462;-75
2021/05/27 00:27:14;;;;;;;8.55;5.32;;;;;;;15.81;80.06;100402.47;5010986;28;20029;-73
2021/05/27 00:29:40;;;;;;;7.20;5.20;;;;;;;15.70;79.67;100363.25;5012761;28;20026;-74
2021/05/27 00:32:06;;;;;;;7.35;5.38;;;;;;;15.74;79.71;100379.78;5014478;28;20022;-74
2021/05/27 00:34:31;;;;;;;6.70;5.10;;;;;;;15.91;79.19;100380.94;5013691;28;20026;-77
2021/05/27 00:36:57;;;;;;;6.65;4.95;;;;;;;16.12;78.50;100408.13;5013477;28;20037;-74
2021/05/27 00:39:22;;;;;;;7.70;5.78;;;;;;;15.92;79.29;100411.31;5012485;28;20021;-76
2021/05/27 00:41:48;;;;;;;8.00;5.70;;;;;;;15.79;79.76;100405.06;5014814;28;20510;-71
2021/05/27 00:44:23;;;;;;;7.13;5.65;;;;;;;16.03;79.21;100421.03;5031199;28;20036;-74
2021/05/27 00:46:50;;;;;;;6.93;5.68;;;;;;;16.10;78.79;100420.25;5032552;28;20026;-73
2021/05/27 00:49:16;;;;;;;6.50;5.88;;;;;;;16.16;78.77;100436.84;5031997;28;20018;-70
2021/05/27 00:51:43;;;;;;;8.52;6.53;;;;;;;16.19;78.31;100428.19;5032165;28;20116;-71
2021/05/27 00:54:09;;;;;;;8.40;6.75;;;;;;;16.06;79.05;100424.53;5014875;28;20036;-74
2021/05/27 00:56:35;;;;;;;8.82;7.00;;;;;;;15.92;79.73;100416.53;5032145;28;20033;-75
2021/05/27 00:59:02;;;;;;;9.38;6.82;;;;;;;16.06;79.71;100428.88;5032213;28;20118;-74
2021/05/27 01:01:27;;;;;;;9.07;7.22;;;;;;;16.16;79.38;100431.63;5023053;28;20029;-76
2021/05/27 01:03:52;;;;;;;8.60;7.47;;;;;;;15.95;79.01;100380.16;5013590;28;20037;-75
2021/05/27 01:06:18;;;;;;;7.93;7.13;;;;;;;16.23;79.14;100396.13;5028442;28;20033;-73
2021/05/27 01:08:44;;;;;;;8.70;7.80;;;;;;;16.23;79.33;100403.94;5032366;28;20376;-71
2021/05/27 01:11:10;;;;;;;9.10;8.02;;;;;;;16.16;80.09;100400.38;5032925;28;20108;-71
2021/05/27 01:13:35;;;;;;;11.95;8.57;;;;;;;15.71;79.61;100328.56;5014330;28;20148;-70
2021/05/27 01:16:01;;;;;;;8.90;8.00;;;;;;;15.30;79.77;100269.94;5032962;28;20357;-70
2021/05/27 01:18:27;;;;;;;8.82;7.90;;;;;;;15.81;80.65;100373.81;5032911;28;20133;-71
2021/05/27 01:20:55;;;;;;;9.63;8.65;;;;;;;15.76;81.38;100362.47;5032755;28;20028;-71
2021/05/27 01:23:24;;;;;;;9.52;8.63;;;;;;;15.90;81.48;100371.41;5014792;28;20026;-71
2021/05/27 01:25:57;;;;;;;10.13;8.95;;;;;;;16.09;81.27;100382.06;5032582;28;20431;-71
2021/05/27 01:28:24;;;;;;;9.55;8.57;;;;;;;16.32;81.02;100378.00;5048002;28;20120;-70
2021/05/27 01:30:52;;;;;;;10.18;9.05;;;;;;;15.83;81.25;100305.34;5032517;28;20476;-71
2021/05/27 01:33:18;;;;;;;10.00;8.95;;;;;;;16.12;81.41;100359.50;4997678;28;20041;-71
2021/05/27 01:35:45;;;;;;;10.40;8.73;;;;;;;15.83;81.27;100315.75;4997640;28;20526;-71
2021/05/27 01:38:21;;;;;;;10.60;9.43;;;;;;;16.11;81.31;100367.31;5032521;28;20075;-71
2021/05/27 01:40:48;;;;;;;12.23;8.88;;;;;;;16.28;80.71;100380.56;5032301;28;20551;-72
2021/05/27 01:43:13;;;;;;;9.98;8.93;;;;;;;16.51;79.35;100391.25;5032129;28;20039;-71
2021/05/27 01:45:40;;;;;;;9.90;8.90;;;;;;;16.34;79.45;100363.25;5032162;28;20115;-71
2021/05/27 01:48:07;;;;;;;12.65;9.00;;;;;;;16.44;79.11;100358.16;5032647;28;20032;-71
2021/05/27 01:50:32;;;;;;;9.60;8.57;;;;;;;16.62;78.61;100363.56;5032227;28;20052;-71
2021/05/27 01:53:03;;;;;;;11.80;9.60;;;;;;;16.46;78.34;100309.53;5032249;28;20029;-71
2021/05/27 01:55:30;;;;;;;11.35;9.07;;;;;;;16.75;78.50;100345.44;5032128;28;20579;-70
2021/05/27 01:57:56;;;;;;;13.63;9.85;;;;;;;17.00;78.33;100371.75;5032003;28;20459;-71
2021/05/27 02:00:23;;;;;;;11.93;9.85;;;;;;;16.79;78.99;100360.25;5031754;28;20120;-70
2021/05/27 02:02:49;;;;;;;12.80;10.27;;;;;;;16.82;79.36;100375.91;5032042;28;20091;-71
2021/05/27 02:05:14;;;;;;;11.65;10.02;;;;;;;16.58;79.79;100380.00;5031982;28;20487;-71
2021/05/27 02:07:42;;;;;;;12.13;10.55;;;;;;;16.43;80.88;100377.25;5031939;28;20037;-71
2021/05/27 02:10:08;;;;;;;12.25;10.95;;;;;;;16.42;81.11;100367.69;5031776;28;20063;-70
2021/05/27 02:12:33;;;;;;;12.50;11.20;;;;;;;16.46;81.24;100369.44;5031631;28;20400;-73
2021/05/27 02:14:59;;;;;;;12.70;10.98;;;;;;;16.47;81.34;100368.59;5031723;28;20052;-71
2021/05/27 02:17:25;;;;;;;12.60;11.40;;;;;;;16.31;82.25;100360.63;5032005;28;20033;-72
2021/05/27 02:19:50;;;;;;;13.20;11.10;;;;;;;16.25;82.87;100338.81;5031807;28;20072;-71
2021/05/27 02:22:15;;;;;;;13.38;11.35;;;;;;;16.40;82.88;100359.84;5031361;28;20092;-70
2021/05/27 02:24:41;;;;;;;15.57;11.68;;;;;;;15.92;82.34;100270.75;5031525;28;20033;-71
2021/05/27 02:27:06;;;;;;;15.82;11.15;;;;;;;16.36;82.43;100365.00;5031609;28;20041;-71
2021/05/27 02:29:32;;;;;;;12.02;10.77;;;;;;;16.27;83.41;100361.41;5031319;28;20036;-71
2021/05/27 02:31:57;;;;;;;13.43;10.70;;;;;;;16.09;82.95;100346.47;5031880;28;20029;-71
2021/05/27 02:34:23;;;;;;;11.52;10.10;;;;;;;16.09;83.26;100343.88;5013232;28;20045;-71
2021/05/27 02:36:48;;;;;;;11.52;10.13;;;;;;;16.23;83.08;100348.38;5031699;28;20446;-71
2021/05/27 02:39:14;;;;;;;11.73;10.52;;;;;;;16.44;83.40;100358.16;5031798;28;20029;-72
2021/05/27 02:41:40;;;;;;;13.20;9.93;;;;;;;16.68;82.57;100359.28;5031526;28;20511;-71
2021/05/27 02:44:06;;;;;;;9.90;8.90;;;;;;;16.66;81.75;100360.13;5031555;28;20025;-70
2021/05/27 02:46:32;;;;;;;9.48;8.48;;;;;;;16.72;81.09;100369.72;5031895;28;20029;-71
2021/05/27 02:48:57;;;;;;;10.18;9.10;;;;;;;16.46;81.71;100385.09;5031773;28;20045;-72
2021/05/27 02:51:23;;;;;;;12.45;9.15;;;;;;;16.42;81.96;100381.56;5046863;28;20021;-71
2021/05/27 02:53:48;;;;;;;10.25;9.05;;;;;;;16.39;82.58;100381.56;5031214;28;20026;-72
2021/05/27 02:56:13;;;;;;;13.05;9.48;;;;;;;16.33;82.72;100384.09;5031335;28;20051;-73
2021/05/27 02:58:39;;;;;;;10.75;9.32;;;;;;;16.40;82.47;100380.69;5031050;28;20041;-71
2021/05/27 03:01:05;;;;;;;11.07;8.75;;;;;;;16.27;82.67;100387.47;5028785;28;20021;-71
2021/05/27 03:03:31;;;;;;;11.93;8.80;;;;;;;15.94;82.44;100336.72;5031366;28;20447;-71
2021/05/27 03:05:58;;;;;;;14.38;9.60;;;;;;;16.33;82.04;100374.53;5031256;28;20103;-69
2021/05/27 03:08:24;;;;;;;9.88;8.57;;;;;;;16.07;81.63;100322.13;5031031;28;20111;-71
2021/05/27 03:10:49;;;;;;;12.40;9.65;;;;;;;16.43;81.37;100374.66;5030986;28;20125;-71
2021/05/27 03:13:15;;;;;;;13.73;8.98;;;;;;;16.45;80.96;100363.38;5030902;28;20387;-71
2021/05/27 03:15:40;;;;;;;10.18;8.63;;;;;;;16.42;81.03;100385.91;5031132;28;20100;-71
2021/05/27 03:18:07;;;;;;;11.73;9.45;;;;;;;16.26;81.48;100377.03;5031007;28;20081;-70
2021/05/27 03:20:34;;;;;;;10.75;8.73;;;;;;;16.18;82.09;100372.59;5031336;28;20021;-71
2021/05/27 03:22:59;;;;;;;11.38;9.02;;;;;;;16.26;81.41;100357.09;5031196;28;20100;-71
2021/05/27 03:25:26;;;;;;;12.70;8.60;;;;;;;16.42;81.37;100355.50;5030955;28;20120;-71
2021/05/27 03:27:51;;;;;;;10.02;8.45;;;;;;;15.96;81.65;100280.34;5030876;28;20542;-70
2021/05/27 03:30:17;;;;;;;12.98;9.23;;;;;;;16.23;82.48;100341.41;5031238;28;20029;-71
2021/05/27 03:32:43;;;;;;;10.32;8.30;;;;;;;16.21;83.30;100350.06;5031146;28;20488;-71
2021/05/27 03:35:09;;;;;;;12.13;7.55;;;;;;;16.32;83.11;100343.25;5034861;28;20030;-71
2021/05/27 03:37:35;;;;;;;11.88;8.30;;;;;;;16.16;82.91;100322.25;5034678;28;20040;-71
2021/05/27 03:40:13;;;;;;;11.90;8.05;;;;;;;16.19;82.70;100334.44;5034614;28;20030;-71
2021/05/27 03:42:44;;;;;;;10.13;7.72;;;;;;;15.91;82.90;100282.00;5034403;28;20029;-71
2021/05/27 03:45:12;;;;;;;10.82;7.50;;;;;;;16.32;82.56;100349.34;5034602;28;20025;-73
2021/05/27 03:47:39;;;;;;;13.35;7.30;;;;;;;16.40;82.47;100358.97;5029367;28;20484;-72
2021/05/27 03:50:07;;;;;;;7.97;7.03;;;;;;;16.41;82.49;100353.78;5034501;28;20156;-71
2021/05/27 03:52:33;;;;;;;10.43;7.05;;;;;;;16.29;81.78;100338.88;5034381;28;20026;-71
2021/05/27 03:54:59;;;;;;;8.27;7.32;;;;;;;16.35;81.84;100348.50;5016342;28;20021;-71
2021/05/27 03:57:24;;;;;;;7.57;6.63;;;;;;;16.42;81.78;100365.06;5034490;28;20404;-71
2021/05/27 04:02:35;;;;;;;8.65;6.72;;;;;;;16.52;80.63;100372.13;5034390;28;20506;-71
2021/05/27 04:07:44;;;;;;;10.20;6.63;;;;;;;16.63;80.04;100351.41;5034527;28;20064;-71
2021/05/27 04:10:10;;;;;;;11.18;6.90;;;;;;;16.90;79.77;100368.19;5034113;28;20034;-70
2021/05/27 04:12:46;;;;;;;11.05;6.82;;;;;;;16.95;79.47;100369.13;5033973;28;20025;-71
2021/05/27 04:15:32;;;;;;;9.07;6.55;;;;;;;17.17;79.82;100357.16;5033920;28;20104;-71
2021/05/27 04:18:05;;;;;;;14.68;7.50;;;;;;;17.27;79.04;100342.41;5034119;28;20060;-70
2021/05/27 04:20:37;;;;;;;22.13;9.98;;;;;;;17.13;78.87;100300.59;5033743;28;20440;-74
2021/05/27 04:23:07;;;;;;;23.63;8.70;;;;;;;17.53;77.41;100350.44;5033461;28;20029;-71
2021/05/27 04:25:32;;;;;;;22.75;8.32;;;;;;;17.51;77.07;100343.44;5033541;28;20028;-70
2021/05/27 04:27:59;;;;;;;27.63;9.55;;;;;;;17.60;77.26;100352.22;5033806;28;20457;-71
2021/05/27 04:30:26;;;;;;;19.20;8.32;;;;;;;17.61;76.31;100356.59;5015438;28;20026;-71
2021/05/27 04:35:32;;;;;;;22.48;8.88;;;;;;;17.72;76.58;100353.16;5031536;28;20395;-71
2021/05/27 04:38:03;;;;;;;12.57;6.20;;;;;;;17.64;75.50;100355.72;5033400;28;20407;-71
2021/05/27 04:40:30;;;;;;;18.45;7.20;;;;;;;17.50;77.51;100352.19;5015699;28;20025;-70
2021/05/27 04:42:56;;;;;;;10.43;6.70;;;;;;;17.37;76.31;100331.22;5031975;28;20565;-72
2021/05/27 04:45:23;;;;;;;9.43;5.55;;;;;;;17.57;76.41;100360.06;5032739;28;20075;-72
2021/05/27 04:47:49;;;;;;;17.83;6.97;;;;;;;17.57;76.98;100354.81;5033259;28;20025;-71
2021/05/27 04:50:15;;;;;;;13.10;6.80;;;;;;;17.53;76.76;100368.69;5033559;28;20029;-71
2021/05/27 04:52:41;;;;;;;17.90;8.10;;;;;;;17.63;76.92;100372.25;5032739;28;20040;-71
2021/05/27 04:55:10;;;;;;;10.00;5.50;;;;;;;17.57;77.06;100369.59;5033477;28;20025;-71
2021/05/27 04:57:36;;;;;;;10.80;5.88;;;;;;;17.63;77.25;100367.91;5033126;28;20495;-71
2021/05/27 05:00:06;;;;;;;12.95;5.90;;;;;;;17.87;75.95;100368.94;5033046;28;20079;-70
2021/05/27 05:02:31;;;;;;;12.13;5.50;;;;;;;18.05;75.01;100365.53;5033482;28;20048;-71
2021/05/27 05:04:57;;;;;;;12.93;5.97;;;;;;;17.93;75.09;100360.22;5033374;28;20483;-71
2021/05/27 05:07:22;;;;;;;17.20;6.07;;;;;;;18.13;74.50;100364.72;5032698;28;20041;-72
2021/05/27 05:09:47;;;;;;;13.68;5.50;;;;;;;18.24;72.93;100376.97;5032834;28;20030;-71
2021/05/27 05:12:13;;;;;;;21.10;6.82;;;;;;;18.27;72.67;100376.97;5026407;28;20041;-74
2021/05/27 05:14:38;;;;;;;9.48;4.35;;;;;;;18.27;71.90;100371.75;5032333;28;20094;-69
2021/05/27 05:17:04;;;;;;;11.32;4.93;;;;;;;18.32;71.57;100371.75;5032703;28;20025;-70
2021/05/27 05:19:30;;;;;;;10.45;5.03;;;;;;;18.43;71.07;100372.66;5032450;28;20076;-77
2021/05/27 05:21:57;;;;;;;12.43;5.15;;;;;;;18.17;70.77;100317.72;5032437;28;20052;-71
2021/05/27 05:24:22;;;;;;;9.27;4.07;;;;;;;18.49;70.59;100371.81;5029998;28;20021;-70
2021/05/27 05:26:48;;;;;;;11.52;4.60;;;;;;;18.52;71.51;100378.81;5032463;28;20027;-71
2021/05/27 05:29:13;;;;;;;9.75;4.50;;;;;;;18.63;70.19;100384.03;5032359;28;20083;-71
2021/05/27 05:31:38;;;;;;;16.02;5.78;;;;;;;18.71;70.74;100377.09;5032229;28;20108;-71
2021/05/27 05:34:04;;;;;;;15.60;5.55;;;;;;;18.76;69.78;100380.59;5032283;28;20017;-70
2021/05/27 05:36:30;;;;;;;13.18;5.38;;;;;;;18.59;70.39;100355.28;5032305;28;20108;-70
2021/05/27 05:38:56;;;;;;;8.25;4.63;;;;;;;18.58;70.27;100366.59;5022461;28;20416;-70
2021/05/27 05:41:22;;;;;;;16.52;6.50;;;;;;;18.59;70.52;100375.31;5020851;28;20029;-71
2021/05/27 05:43:47;;;;;;;9.18;5.05;;;;;;;18.69;70.11;100373.59;5022695;28;20059;-70
2021/05/27 05:46:13;;;;;;;11.18;4.60;;;;;;;18.58;69.16;100353.53;5022822;28;20025;-71
2021/05/27 05:48:38;;;;;;;11.43;4.78;;;;;;;18.57;68.78;100345.69;5020729;28;20037;-71
2021/05/27 05:51:07;;;;;;;15.45;4.97;;;;;;;18.72;69.12;100384.94;5026675;28;20033;-71
2021/05/27 05:53:32;;;;;;;13.35;5.25;;;;;;;18.72;69.61;100368.38;5032323;28;20021;-71
2021/05/27 05:55:58;;;;;;;19.00;5.80;;;;;;;18.81;69.90;100381.47;5022653;28;20485;-74
2021/05/27 05:58:25;;;;;;;6.85;4.07;;;;;;;18.74;70.18;100382.31;5016622;28;20030;-72
2021/05/27 06:00:53;;;;;;;15.05;5.40;;;;;;;18.57;69.95;100395.38;4981267;28;20053;-73
2021/05/27 06:03:18;;;;;;;11.48;4.85;;;;;;;18.58;71.79;100394.50;5016091;28;20034;-72
2021/05/27 06:05:45;;;;;;;9.63;4.40;;;;;;;18.64;71.53;100393.63;5016438;28;20083;-71
2021/05/27 06:08:11;;;;;;;5.85;4.38;;;;;;;18.89;70.80;100398.06;5030263;28;20475;-70
2021/05/27 06:10:37;;;;;;;9.15;4.72;;;;;;;19.04;70.91;100402.47;5029635;28;20030;-73
2021/05/27 06:13:03;;;;;;;14.50;5.63;;;;;;;19.21;70.16;100401.59;5031181;28;20029;-73
2021/05/27 06:15:30;;;;;;;10.65;6.13;;;;;;;19.24;70.71;100404.22;5031794;28;20108;-74
2021/05/27 06:18:00;;;;;;;10.90;5.90;;;;;;;19.32;69.97;100393.75;5031658;28;20052;-73
2021/05/27 06:20:28;;;;;;;11.93;5.80;;;;;;;19.42;70.47;100400.72;5031620;28;20026;-74
2021/05/27 06:22:54;;;;;;;8.73;4.28;;;;;;;19.44;68.66;100396.38;5031307;28;20025;-73
2021/05/27 06:25:24;;;;;;;16.58;5.60;;;;;;;19.43;68.46;100402.47;5031504;28;20033;-74
2021/05/27 06:27:51;;;;;;;14.82;4.72;;;;;;;19.26;69.30;100349.25;5031483;28;20159;-73
2021/05/27 06:30:17;;;;;;;9.80;4.28;;;;;;;19.58;67.64;100408.56;5031344;28;20029;-73
2021/05/27 06:32:43;;;;;;;10.38;5.00;;;;;;;19.31;68.09;100405.09;4980180;28;20048;-74
2021/05/27 06:35:11;;;;;;;13.73;3.88;;;;;;;19.24;67.23;100357.97;5031006;28;20021;-73
2021/05/27 06:37:39;;;;;;;13.40;4.35;;;;;;;19.49;67.26;100409.44;5031660;28;20048;-71
2021/05/27 06:40:06;;;;;;;20.35;7.28;;;;;;;19.62;67.59;100407.69;5031770;28;20460;-72
2021/05/27 06:42:31;;;;;;;8.00;4.80;;;;;;;19.75;65.83;100412.03;5031681;28;20120;-71
2021/05/27 06:44:57;;;;;;;15.77;4.75;;;;;;;19.87;65.85;100406.78;5031787;28;20036;-72
2021/05/27 06:47:22;;;;;;;13.25;3.80;;;;;;;19.92;64.48;100400.69;5031632;28;20036;-72
2021/05/27 06:49:48;;;;;;;11.18;4.13;;;;;;;19.86;65.11;100384.09;5031493;28;20498;-70
2021/05/27 06:52:13;;;;;;;9.82;4.30;;;;;;;19.89;65.53;100383.22;5031917;28;20084;-71
2021/05/27 06:54:39;;;;;;;18.50;5.53;;;;;;;19.79;65.88;100358.75;5031448;28;20021;-72
2021/05/27 06:57:04;;;;;;;17.60;6.25;;;;;;;19.62;66.11;100335.22;5031295;28;20034;-75
2021/05/27 06:59:30;;;;;;;18.35;5.28;;;;;;;19.38;66.01;100344.03;5031394;28;20553;-71
2021/05/27 07:01:55;;;;;;;25.10;6.72;;;;;;;19.32;67.46;100365.81;5031667;28;20032;-71
2021/05/27 07:04:21;;;;;;;19.90;4.78;;;;;;;18.89;67.00;100313.47;5031426;28;20030;-71
2021/05/27 07:06:46;;;;;;;29.10;6.47;;;;;;;19.30;67.17;100387.63;5031578;28;20034;-71
2021/05/27 07:09:13;;;;;;;18.35;6.20;;;;;;;19.39;67.87;100398.13;5035620;28;20025;-73
2021/05/27 07:11:38;;;;;;;22.83;5.65;;;;;;;19.47;67.48;100390.25;5035318;28;20036;-72
2021/05/27 07:14:04;;;;;;;13.68;6.93;;;;;;;19.49;68.14;100381.53;5016755;28;20034;-71
2021/05/27 07:16:29;;;;;;;12.85;6.00;;;;;;;19.37;67.12;100364.06;5035623;28;20040;-72
2021/05/27 07:18:55;;;;;;;12.80;6.03;;;;;;;19.65;68.88;100389.34;5035218;28;20053;-71
2021/05/27 07:21:20;;;;;;;9.25;5.90;;;;;;;19.68;69.05;100399.84;5035566;28;20083;-72
2021/05/27 07:23:48;;;;;;;10.38;5.60;;;;;;;19.75;67.12;100406.81;5035464;28;20111;-71
2021/05/27 07:26:13;;;;;;;19.33;9.02;;;;;;;19.64;68.83;100395.44;5035385;28;20025;-72
2021/05/27 07:28:39;;;;;;;15.30;6.97;;;;;;;19.76;67.65;100418.16;5035294;28;20026;-71
2021/05/27 07:31:06;;;;;;;6.88;6.10;;;;;;;19.84;67.01;100411.19;5035246;28;20484;-72
2021/05/27 07:33:31;;;;;;;10.07;6.20;;;;;;;19.72;66.59;100391.94;5034958;28;20030;-72
2021/05/27 07:35:57;;;;;;;9.23;5.97;;;;;;;19.58;67.21;100398.97;5035153;28;20025;-71
2021/05/27 07:38:22;;;;;;;9.10;4.82;;;;;;;19.30;67.00;100388.53;5034862;28;20026;-72
2021/05/27 07:40:48;;;;;;;10.45;5.97;;;;;;;19.28;67.49;100384.13;5034971;28;20064;-72
2021/05/27 07:43:13;;;;;;;8.85;5.50;;;;;;;19.22;68.08;100375.41;5034726;28;20034;-72
2021/05/27 07:45:39;;;;;;;7.85;5.47;;;;;;;19.03;68.35;100387.63;5034814;28;20047;-71
2021/05/27 07:48:05;;;;;;;7.57;5.25;;;;;;;18.82;69.63;100383.22;5034702;28;20084;-72
2021/05/27 07:50:31;;;;;;;8.18;5.00;;;;;;;18.78;69.54;100412.88;5034838;28;20029;-71
2021/05/27 07:52:58;;;;;;;8.05;4.80;;;;;;;18.72;69.84;100405.84;5034738;28;20502;-72
2021/05/27 07:55:24;;;;;;;6.35;5.00;;;;;;;18.82;69.87;100432.06;5034935;28;20026;-71
2021/05/27 07:57:49;;;;;;;7.35;4.93;;;;;;;19.01;70.22;100425.13;5034326;28;20110;-72
2021/05/27 08:00:15;;;;;;;9.77;5.28;;;;;;;18.94;70.36;100407.69;5034540;28;20025;-72
2021/05/27 08:02:42;;;;;;;7.60;5.65;;;;;;;18.83;71.53;100403.28;5034249;28;20021;-73
2021/05/27 08:05:08;;;;;;;7.32;6.53;;;;;;;18.74;72.04;100385.81;5034533;28;20017;-71
2021/05/27 08:07:34;;;;;;;9.07;6.68;;;;;;;18.84;72.31;100439.03;5034237;28;20033;-72
2021/05/27 08:09:59;;;;;;;8.77;6.78;;;;;;;18.76;72.80;100433.75;5034318;28;20059;-70
2021/05/27 08:12:24;;;;;;;9.77;6.70;;;;;;;18.53;72.58;100420.63;5034279;28;20033;-71
2021/05/27 08:14:50;;;;;;;8.18;6.50;;;;;;;18.41;73.08;100415.34;5034600;28;20510;-72
2021/05/27 08:17:15;;;;;;;6.95;5.55;;;;;;;18.66;72.28;100436.38;5034354;28;20036;-72
2021/05/27 08:19:42;;;;;;;7.05;4.53;;;;;;;18.83;72.44;100432.03;5033774;28;20129;-72
2021/05/27 08:22:09;;;;;;;7.43;3.90;;;;;;;18.76;71.03;100435.50;5033054;28;20539;-75
2021/05/27 08:24:34;;;;;;;6.70;3.83;;;;;;;18.66;71.76;100428.50;5034231;28;20129;-71
2021/05/27 08:27:02;;;;;;;6.32;3.75;;;;;;;18.58;72.39;100413.66;5034144;28;20072;-72
2021/05/27 08:29:28;;;;;;;7.05;3.95;;;;;;;18.20;73.20;100336.00;4999931;28;20045;-71
2021/05/27 08:31:53;;;;;;;8.00;3.95;;;;;;;18.69;72.64;100397.13;5031156;28;20021;-72
2021/05/27 08:34:19;;;;;;;7.18;4.22;;;;;;;18.59;73.28;100394.50;5017030;28;20026;-74
2021/05/27 08:36:45;;;;;;;7.63;3.35;;;;;;;18.74;72.49;100398.00;5033147;28;20033;-73
2021/05/27 08:39:11;;;;;;;5.63;4.03;;;;;;;18.82;73.13;100421.59;5033586;28;20025;-74
2021/05/27 08:41:37;;;;;;;8.77;3.65;;;;;;;18.78;72.66;100399.78;5032900;28;20033;-71
2021/05/27 08:44:04;;;;;;;7.70;3.47;;;;;;;18.64;71.89;100371.00;5033341;28;20407;-74
2021/05/27 08:46:31;;;;;;;7.05;3.30;;;;;;;18.92;73.72;100405.06;5032259;28;20113;-73
2021/05/27 08:48:57;;;;;;;7.85;3.70;;;;;;;18.89;72.84;100399.78;5032908;28;20514;-73
2021/05/27 08:51:23;;;;;;;5.85;3.80;;;;;;;18.55;72.77;100350.91;5033350;28;20023;-72
2021/05/27 08:53:48;;;;;;;5.90;4.05;;;;;;;18.79;73.53;100385.84;5032959;28;20083;-72
2021/05/27 08:56:14;;;;;;;7.13;4.95;;;;;;;18.93;73.52;100406.81;5032869;28;20026;-72
2021/05/27 08:58:41;;;;;;;6.85;4.20;;;;;;;19.14;73.36;100423.41;5032531;28;20045;-70
2021/05/27 09:01:07;;;;;;;5.78;3.83;;;;;;;19.38;72.21;100430.41;5032385;28;20021;-71
2021/05/27 09:03:44;;;;;;;9.05;4.00;;;;;;;19.59;72.45;100426.00;4990501;28;20421;-72
2021/05/27 09:06:11;;;;;;;10.45;4.40;;;;;;;19.87;71.92;100424.25;4990082;28;20061;-72
2021/05/27 09:08:38;;;;;;;8.70;3.70;;;;;;;20.18;67.80;100413.69;4990553;28;20044;-73
2021/05/27 09:11:26;;;;;;;7.18;4.35;;;;;;;20.47;69.12;100400.47;4990588;28;20035;-73
2021/05/27 09:14:00;;;;;;;7.07;4.25;;;;;;;20.47;68.53;100362.88;4988399;28;20548;-70
2021/05/27 09:16:26;;;;;;;5.22;3.85;;;;;;;20.84;66.90;100395.03;4989902;28;20034;-72
2021/05/27 09:18:52;;;;;;;5.00;3.60;;;;;;;21.03;65.48;100401.91;4990114;28;20108;-70
2021/05/27 09:21:39;;;;;;;7.93;4.28;;;;;;;21.14;65.45;100390.44;4957549;28;20048;-71
2021/05/27 09:24:07;;;;;;;6.88;4.35;;;;;;;21.00;64.54;100400.19;4990101;28;20084;-72
2021/05/27 09:26:47;;;;;;;8.85;3.97;;;;;;;20.94;65.26;100397.59;4990503;28;20034;-70
2021/05/27 09:29:13;;;;;;;6.57;4.47;;;;;;;21.03;64.84;100394.03;4988019;28;20528;-73
2021/05/27 09:31:59;;;;;;;10.20;5.53;;;;;;;20.92;64.37;100379.25;4989291;28;20030;-72
2021/05/27 09:34:46;;;;;;;9.73;5.90;;;;;;;20.92;65.88;100386.25;4989982;28;20034;-74
2021/05/27 09:37:28;;;;;;;7.03;4.60;;;;;;;21.10;64.82;100374.75;4966207;28;20034;-72
2021/05/27 09:39:54;;;;;;;6.82;4.35;;;;;;;21.25;64.01;100379.00;4983333;28;20030;-74
2021/05/27 09:42:20;;;;;;;8.48;4.95;;;;;;;21.31;65.00;100386.81;5022809;28;20391;-73
2021/05/27 09:44:46;;;;;;;5.63;5.05;;;;;;;21.28;63.64;100376.34;5022401;28;20038;-75
2021/05/27 09:47:11;;;;;;;5.07;4.30;;;;;;;21.33;63.89;100380.69;5021131;28;20030;-72
2021/05/27 09:49:56;;;;;;;5.05;4.30;;;;;;;21.31;62.78;100381.56;5022818;28;20450;-74
2021/05/27 09:52:25;;;;;;;9.30;4.32;;;;;;;21.25;63.94;100390.38;5030032;28;20022;-74
2021/05/27 09:54:55;;;;;;;9.43;5.28;;;;;;;21.32;63.38;100393.78;5032033;28;20034;-72
2021/05/27 09:57:29;;;;;;;6.07;3.78;;;;;;;21.05;62.68;100394.88;5032037;28;20033;-72
2021/05/27 09:59:55;;;;;;;4.90;3.97;;;;;;;20.92;64.01;100389.75;5030776;28;20104;-71
2021/05/27 10:02:22;;;;;;;8.52;3.70;;;;;;;20.88;63.33;100400.28;5031629;28;20026;-75
2021/05/27 10:04:57;;;;;;;7.85;4.07;;;;;;;20.76;64.05;100399.47;5027871;28;20033;-71
2021/05/27 10:07:40;;;;;;;5.88;3.90;;;;;;;20.65;64.76;100409.13;5027862;28;20028;-73
2021/05/27 10:10:08;;;;;;;6.60;3.65;;;;;;;20.68;64.35;100412.56;5030689;28;20034;-74
2021/05/27 10:12:40;;;;;;;6.68;3.63;;;;;;;20.53;62.49;100389.94;5029460;28;20454;-73
2021/05/27 10:15:17;;;;;;;5.75;3.50;;;;;;;20.66;62.01;100397.72;5031204;28;20407;-72
2021/05/27 10:17:47;;;;;;;6.55;3.17;;;;;;;20.58;61.43;100394.31;5031551;28;20534;-73
2021/05/27 10:20:18;;;;;;;13.55;3.35;;;;;;;20.41;61.53;100361.19;5031967;28;20035;-73
2021/05/27 10:22:44;;;;;;;6.93;3.10;;;;;;;20.08;61.14;100330.75;5031522;28;20069;-73
2021/05/27 10:25:15;;;;;;;6.90;2.67;;;;;;;20.49;60.93;100384.72;5031527;28;20087;-73
2021/05/27 10:27:42;;;;;;;7.68;2.80;;;;;;;20.51;61.28;100375.97;5031162;28;20071;-68
2021/05/27 10:30:09;;;;;;;5.10;3.00;;;;;;;20.40;61.35;100371.66;5027972;28;20399;-73
2021/05/27 10:32:39;;;;;;;5.55;2.65;;;;;;;20.17;61.86;100331.56;5031208;28;20112;-72
2021/05/27 10:35:05;;;;;;;8.15;3.13;;;;;;;20.13;62.47;100302.78;5028867;28;20022;-73
2021/05/27 10:37:33;;;;;;;6.72;2.78;;;;;;;20.46;61.53;100361.13;5031044;28;20026;-73
2021/05/27 10:39:58;;;;;;;9.27;3.40;;;;;;;20.38;62.80;100336.72;5031120;28;20040;-72
2021/05/27 10:42:44;;;;;;;10.00;3.53;;;;;;;20.56;61.93;100349.72;4987512;28;20033;-71
2021/05/27 10:45:10;;;;;;;6.85;3.47;;;;;;;20.62;62.40;100333.06;5029175;28;20056;-71
2021/05/27 10:47:36;;;;;;;6.13;3.08;;;;;;;20.65;61.56;100330.44;5029901;28;20039;-73
2021/05/27 10:50:03;;;;;;;11.57;3.83;;;;;;;20.37;61.85;100267.66;5027956;28;20108;-74
2021/05/27 10:52:30;;;;;;;9.55;3.53;;;;;;;20.85;61.89;100309.34;5031223;28;20064;-73
2021/05/27 10:54:56;;;;;;;6.32;3.63;;;;;;;20.87;61.14;100301.44;5028008;28;20029;-74
2021/05/27 10:57:40;;;;;;;14.50;3.78;;;;;;;21.04;60.55;100302.16;5027832;28;20598;-74
2021/05/27 11:00:32;;;;;;;13.00;5.40;;;;;;;21.07;60.87;100298.63;5030236;28;20527;-74
2021/05/27 11:03:34;;;;;;;18.13;5.15;;;;;;;21.18;60.98;100278.41;4952301;28;20051;-73
2021/05/27 11:06:32;;;;;;;18.65;4.18;;;;;;;21.21;60.72;100278.38;4931778;29;20114;-74
2021/05/27 11:11:40;;;;;;;24.27;5.70;;;;;;;21.04;61.48;100233.91;4950692;29;20422;-72
2021/05/27 11:14:34;;;;;;;14.57;4.72;;;;;;;21.37;61.29;100270.34;4935449;29;20483;-71
2021/05/27 11:27:50;;;;;;;9.88;4.25;;;;;;;22.45;58.09;100277.78;4931928;29;20524;-72
2021/05/27 11:30:17;;;;;;;18.40;5.38;;;;;;;22.39;58.66;100292.75;4932023;29;20032;-72
2021/05/27 11:32:47;;;;;;;31.42;7.70;;;;;;;22.49;59.87;100288.25;4932275;29;20043;-69
2021/05/27 11:35:13;;;;;;;18.73;5.00;;;;;;;22.48;59.19;100278.59;4931934;29;20031;-73
2021/05/27 11:37:43;;;;;;;20.75;4.97;;;;;;;22.65;58.48;100284.47;4931966;29;20568;-71
2021/05/27 11:40:10;;;;;;;12.82;3.88;;;;;;;22.59;57.30;100267.03;4964941;28;20038;-72
2021/05/27 11:42:37;;;;;;;9.60;4.30;;;;;;;22.66;58.57;100265.16;4989963;28;20037;-69
2021/05/27 11:45:06;;;;;;;11.25;3.20;;;;;;;22.81;56.51;100279.81;4989091;28;20072;-73